Terminal Aerodrome Forecast
Issued by NWS

Home | Current Version | Previous Version | Text Only | Print | Product List | Glossary On
Versions: 1 2 3 4 5 6 7 8 9 10 11 12 13 14 15 16
972
FTUS45 KTFX 262320
TAFGTF
TAF
KGTF 262320Z 2700/2724 VRB05KT P6SM VCTS SCT090CB BKN150
      TEMPO 2700/2702 VRB20G40KT -TSRA BKN070CB
     FM270300 22008KT P6SM SCT100
     FM272200 05007KT P6SM VCTS SCT090CB=

USA.gov is the U.S. government's official web portal to all federal, state and local government web resources and services.